Terminal Aerodrome Forecast
Issued by NWS Atlanta, GA

Home | Current Version | Previous Version | Text Only | Print | Product List | Glossary On
Versions: 1 2 3 4 5 6 7 8 9 10 11 12 13 14 15 16 17 18 19 20 21 22 23 24 25 26 27 28 29 30 31 32 33 34 35 36 37 38 39 40 41 42
000
FTUS42 KFFC 011726
TAFATL
TAF
KATL 011726Z 0118/0224 05010KT P6SM VCSH BKN040 BKN060
     FM011900 05008KT P6SM BKN040 BKN060
     FM012200 02006KT P6SM SCT050
     FM020100 35006KT P6SM FEW250
     FM021200 05005KT P6SM FEW250
     FM021600 07008KT P6SM SCT040=

USA.gov is the U.S. government's official web portal to all federal, state and local government web resources and services.